createdAt,value
2019-04-01T00:06:42.768Z,40.1
2019-04-01T00:16:46.183Z,40.8
2019-04-01T00:26:49.590Z,41.8
2019-04-01T00:36:53.039Z,42.5
2019-04-01T00:46:56.463Z,43.1
2019-04-01T00:56:59.906Z,43.8
2019-04-01T01:07:03.383Z,44.1
2019-04-01T01:17:06.853Z,45.2
2019-04-01T01:27:10.327Z,45.8
2019-04-01T01:37:13.781Z,46.9
2019-04-01T01:47:17.191Z,47.7
2019-04-01T01:57:20.627Z,48.7
2019-04-01T02:07:24.057Z,49.9
2019-04-01T02:17:27.465Z,50.8
2019-04-01T02:27:30.890Z,52.6
2019-04-01T02:37:34.345Z,53.7
2019-04-01T02:47:37.824Z,54.5
2019-04-01T02:57:41.304Z,55.9
2019-04-01T03:07:44.764Z,56.9
2019-04-01T03:17:48.214Z,57.9
2019-04-01T03:27:51.679Z,58.8
2019-04-01T03:37:55.140Z,59.5
2019-04-01T03:47:58.603Z,60.5
2019-04-01T03:58:02.077Z,61.8
2019-04-01T04:08:05.514Z,62.1
2019-04-01T04:18:08.995Z,63
2019-04-01T04:28:12.458Z,63.8
2019-04-01T04:38:15.913Z,63.8
2019-04-01T04:48:19.390Z,64.4
2019-04-01T04:58:23.848Z,65.5
2019-04-01T05:08:27.275Z,65.7
2019-04-01T05:18:30.727Z,65.6
2019-04-01T05:28:34.166Z,65.7
2019-04-01T05:38:37.626Z,66.2
2019-04-01T05:48:41.045Z,65.7
2019-04-01T05:58:44.484Z,65.7
2019-04-01T06:08:47.958Z,65.8
2019-04-01T06:18:56.924Z,65.1
2019-04-01T06:29:00.338Z,61
2019-04-01T06:39:03.764Z,56.1
2019-04-01T06:49:07.197Z,53.1
2019-04-01T06:59:10.690Z,57.2
2019-04-01T07:09:14.117Z,59.2
2019-04-01T07:19:17.573Z,58.3
2019-04-01T07:29:20.993Z,57.8
2019-04-01T07:39:24.420Z,58.6
2019-04-01T07:49:27.885Z,57.6
2019-04-01T07:59:31.446Z,58.4
2019-04-01T08:09:34.848Z,57.6
2019-04-01T08:19:38.252Z,54.6
2019-04-01T08:29:41.653Z,54.3
2019-04-01T08:39:45.056Z,54
2019-04-01T08:49:48.486Z,53.6
2019-04-01T08:59:51.911Z,53.6
2019-04-01T09:09:59.605Z,54.2
2019-04-01T09:20:03.016Z,53.6
2019-04-01T09:30:06.431Z,52.6
2019-04-01T09:40:09.886Z,53.3
2019-04-01T09:50:13.361Z,51.3
2019-04-01T10:00:16.799Z,52.9
2019-04-01T10:10:20.216Z,48.5
2019-04-01T10:20:23.636Z,52.5
2019-04-01T10:30:27.075Z,49.8
2019-04-01T10:40:30.523Z,50.5
2019-04-01T10:50:34.086Z,49.7
2019-04-01T11:00:37.890Z,50.1
2019-04-01T11:10:41.426Z,49.4
2019-04-01T11:20:44.895Z,50.2
2019-04-01T11:30:48.383Z,48.8
2019-04-01T11:40:52.085Z,47.6
2019-04-01T11:50:55.716Z,48
2019-04-01T12:00:59.181Z,50.2
2019-04-01T12:11:03.629Z,46.9
2019-04-01T12:21:08.605Z,46.8
2019-04-01T12:31:13.267Z,45.3
2019-04-01T12:41:16.738Z,45.6
2019-04-01T12:51:21.848Z,46.5
2019-04-01T13:01:25.559Z,44.9
2019-04-01T13:11:29.004Z,46.9
2019-04-01T13:21:34.830Z,45.5
2019-04-01T13:31:38.274Z,44.4
2019-04-01T13:41:43.187Z,44.3
2019-04-01T13:51:46.682Z,44.2
2019-04-01T14:01:50.131Z,44.3
2019-04-01T14:11:53.596Z,43.9
2019-04-01T14:21:57.087Z,43.7
2019-04-01T14:32:00.513Z,42.7
2019-04-01T14:42:03.935Z,45.7
2019-04-01T14:52:07.373Z,46.5
2019-04-01T15:02:10.816Z,45.9
2019-04-01T15:12:14.264Z,44.8
2019-04-01T15:22:17.698Z,44.5
2019-04-01T15:32:21.153Z,44
2019-04-01T15:42:25.485Z,43.4
2019-04-01T15:52:28.944Z,43.9
2019-04-01T16:02:32.365Z,43.1
2019-04-01T16:12:35.815Z,43.4
2019-04-01T16:22:39.238Z,42.9
2019-04-01T16:32:42.693Z,43.7
2019-04-01T16:42:46.115Z,44.3
2019-04-01T16:52:49.545Z,42.7
2019-04-01T17:02:52.990Z,43.9
2019-04-01T17:12:56.431Z,44.5
2019-04-01T17:23:01.439Z,45.6
2019-04-01T17:33:08.854Z,45.4
2019-04-01T17:43:13.831Z,46.3
2019-04-01T17:53:17.268Z,47.1
2019-04-01T18:03:20.746Z,48.4
2019-04-01T18:13:24.167Z,49.5
2019-04-01T18:23:27.617Z,50.2
2019-04-01T18:33:31.071Z,51
2019-04-01T18:43:34.518Z,51.2
2019-04-01T18:53:37.941Z,51.4
2019-04-01T19:03:43.248Z,51.8
2019-04-01T19:13:46.664Z,52.3
2019-04-01T19:23:50.116Z,52.2
2019-04-01T19:33:53.550Z,52.3
2019-04-01T19:43:57.006Z,53.2
2019-04-01T19:54:00.403Z,54.5
2019-04-01T20:04:03.832Z,54.3
2019-04-01T20:14:07.301Z,54.8
2019-04-01T20:24:10.747Z,56
2019-04-01T20:34:21.438Z,56.2
2019-04-01T20:44:26.385Z,55.4
2019-04-01T20:54:29.823Z,56
2019-04-01T21:04:33.230Z,56.6
2019-04-01T21:14:36.664Z,57.4
2019-04-01T21:24:40.091Z,57.7
2019-04-01T21:34:43.508Z,57.4
2019-04-01T21:44:47.485Z,58.1
2019-04-01T21:54:50.896Z,58.3
2019-04-01T22:04:54.310Z,58.7
2019-04-01T22:14:57.734Z,59.4
2019-04-01T22:25:01.740Z,59.1
2019-04-01T22:35:05.934Z,59.7
2019-04-01T22:45:13.077Z,60.4
2019-04-01T22:55:16.562Z,60.5
2019-04-01T23:05:19.971Z,60.6
2019-04-01T23:15:23.419Z,61.8
2019-04-01T23:25:26.875Z,62
2019-04-01T23:35:30.344Z,62.4
2019-04-01T23:45:33.757Z,62.9
2019-04-01T23:55:37.171Z,64.2
